Logo AVAMET
Benvolgut visitant, si us plau, ingressa Recuperar contrasenya
AVAMET paisatges

Alacant el Rebolledo CETRA

Dades diàries. Acumulats / Últims 30 dies disponibles

Data Temperatura (°C) Humitat rel. (%) Pressió rel. (hPa) Vent (km/h) Precipitació
Mínima Mitjana Màxima Amplitud
tèrmica
Mínima Mitjana Màxima Mínima Mitjana Màxima Predom. Mitjana Ràfega
màxima
Total
(mm)
Índex-n
Mínima Mitjana Màxima Mínima Mitjana Màxima n
0 a 1
P0 max
mm 5'
Dades mensuals acumulades fins l'últim dia disponible
01/2021 1,2 5,1 10,3 9,3 8,0 13,9 22,4 21,2 11 55 90 1.000 1.015 1.027   6,8 106,2 21,2
Dades anuals acumulades fins l'últim dia disponible
2021 1,2 5,1 10,3 9,3 8,0 13,9 22,4 21,2 11 55 90 1.000 1.015 1.027   6,8 106,2 21,2
Últims 30 dies disponibles
23-01-2021 8,7     12,8     17,5 8,8 26 43 56 1.007 1.013 1.016 O 9,6 46,7 0,0
22-01-2021 10,3     14,2     19,4 9,1 25 47 66 1.005 1.009 1.014 W 17,9 106,2 0,2
21-01-2021 8,2     13,8     19,7 11,5 32 57 80 1.011 1.014 1.016 W 9,0 38,6 0,0
20-01-2021 5,0     8,3     10,7 5,7 72 84 90 1.011 1.014 1.019 W 4,5 24,1 0,8
19-01-2021 5,3     10,3     15,5 10,2 58 79 90 1.020 1.023 1.026 SW 3,5 17,7 0,2
18-01-2021 6,6     11,4     16,5 9,9 28 54 88 1.023 1.025 1.026 W 3,9 20,9 0,0
17-01-2021 3,8     12,8     22,4 18,6 11 29 56 1.022 1.024 1.027 W 5,6 29,0 0,0
16-01-2021 4,1     9,9     15,3 11,2 26 42 65 1.020 1.024 1.027 W 6,1 25,7 0,0
15-01-2021 6,5     11,3     17,8 11,3 27 41 57 1.020 1.021 1.023 NW 5,1 20,9 0,0
14-01-2021 4,8     9,2     15,1 10,3 28 48 65 1.020 1.022 1.025 W 2,4 19,3 0,0
13-01-2021 3,1     8,1     14,6 11,5 24 52 73 1.024 1.025 1.027 W 2,9 16,1 0,0
12-01-2021 1,2     6,8     13,7 12,5 25 47 70 1.023 1.024 1.026 W 4,7 20,9 0,0
11-01-2021 3,4     7,5     12,4 9,0 57 73 85 1.014 1.017 1.023 WNW 2,4 16,1 0,2
10-01-2021 3,7     7,2     10,4 6,7 69 79 87 1.005 1.008 1.014 WNW 2,3 17,7 1,8
09-01-2021 4,6     7,9     11,3 6,7 73 83 89 1.000 1.002 1.005 W 3,1 22,5 2,8 0,20
08-01-2021 5,1     6,6     8,0 2,9 83 87 89 1.002 1.006 1.008 E 5,5 32,2 10,6 0,25 0,60
07-01-2021 5,0     6,4     8,9 3,9 43 75 89 1.007 1.009 1.010 W 3,1 30,6 4,6 0,20
06-01-2021 4,2     7,9     11,7 7,5 28 46 59 1.009 1.011 1.013 E 3,1 22,5 0,0
05-01-2021 4,3     7,8     12,8 8,5 17 40 57 1.008 1.009 1.011 W 5,6 37,0 0,0
04-01-2021 4,6     9,0     12,4 7,8 30 39 48 1.008 1.010 1.012 W 11,9 51,5 0,0
03-01-2021 3,6     7,6     11,4 7,8 27 35 46 1.009 1.011 1.013 W 10,6 61,2 0,0
02-01-2021 4,8     7,4     9,6 4,8 30 40 51 1.007 1.008 1.010 W 18,7 78,9 0,0
01-01-2021 6,2     9,3     12,0 5,8 34 47 57 1.004 1.006 1.008 W 15,8 66,0 0,0
31-12-2020 6,7     10,1     15,2 8,5 26 38 49 1.009 1.013 1.016 O 6,9 35,4 0,0
30-12-2020 6,4     9,7     13,4 7,0 26 37 47 1.008 1.013 1.016 W 11,3 72,4 0,0
29-12-2020 8,4     10,6     14,0 5,6 33 43 53 1.002 1.005 1.008 W 20,8 72,4 0,0
28-12-2020 8,9     12,1     15,6 6,7 23 33 56 997 1.001 1.004 W 14,8 59,5 0,0
27-12-2020 2,2     9,6     14,9 12,7 17 31 51 1.001 1.011 1.020 W 9,3 35,4 0,0
26-12-2020 3,9     8,1     13,4 9,5 9 28 44 1.020 1.023 1.025 W 5,3 20,9 0,0
25-12-2020 6,9     11,2     15,6 8,7 20 43 81 1.018 1.021 1.025 NE 5,6 38,6 0,0
Últims 13 mesos disponibles
12/2020 2,2 8,7 15,3 12,8 10,8 17,2 24,3 22,1 28 49 69 996 1.013 1.026 W 8,7 107,8 2,0
11/2020 6,9 12,5 17,7 16,2 16,7 20,8 26,7 19,8 53 66 79 988 1.018 1.026 E 4,0 51,5 24,8
10/2020 9,1 14,4 19,5 19,1 19,2 24,4 31,9 22,8 34 46 66 997 1.015 1.024 W 5,7 72,4 1,6
09/2020 14,2 19,2 21,2 23,5 24,4 28,2 31,2 17,0 29 53 68 1.009 1.015 1.021 E 5,3 70,8 4,0
08/2020 15,8 22,5 25,0 26,9 26,8 32,0 34,8 19,0 30 57 77 1.001 1.011 1.016 E 4,9 43,5 11,8
07/2020 20,3 22,0 24,5 26,4 28,4 31,1 34,6 14,3 37 54 69 1.009 1.014 1.019 E 5,9 43,5 0,0
06/2020 14,3 18,6 21,2 23,3 22,1 28,1 31,5 17,2 33 55 70 1.003 1.012 1.019 E 5,8 48,3 10,6
05/2020 12,2 16,6 20,8 21,3 20,4 26,1 31,5 19,3 37 51 69 1.004 1.015 1.024 E 6,0 53,1 26,2
04/2020 9,0 12,5 15,6 16,0 16,2 20,3 26,8 17,8 37 63 81 1.004 1.014 1.023 E 5,5 57,9 42,8
03/2020 7,1 11,1 16,8 14,7 10,5 19,0 26,3 19,2 33 59 87 1.006 1.015 1.023 E 8,1 90,1 108,8
02/2020 7,1 10,5 15,4 15,1 13,4 20,2 27,1 20,0 26 61 88 1.012 1.023 1.031 W 5,2 57,9 2,6
01/2020 2,4 7,7 14,6 11,9 12,7 16,1 21,9 19,5 46 65 81 1.011 1.023 1.030 W 5,7 74,0 46,8
12/2019 5,7 10,6 15,2 14,2 13,4 18,1 23,8 18,1 38 61 87 1.003 1.017 1.030 W 6,6 93,3 48,8
Tots els anys disponibles
2020 2,2 14,7 25,0 18,9 10,5 23,6 34,8 32,6 26 57 88 996 1.016 1.031 E 5,9 107,8 282,0
Temperatura (°C)
Humitat relativa (%)
Velocitat del vent i ràfega màxima (km/h)
Direcció del vent (°)
Pressió (hPa)
Precipitació (mm)
Nota sobre les dades: s'avisa a l'usuari de la provisionalitat i no oficialitat d'aquestes dades
Logo AVAMET blanc
Web allotjada a Sollutia
Llicència de Creative CommonsLa web d'AVAMET i els seus continguts estan subjectes a una llicència de
Reconeixement - No Comercial - Compartir igual
Avís legal - Política de privacitat - Política de cookies
NOVES ESTACIONS: Dénia - la Xara (Soci), Rossell - la Vila (Soci), Onda - CR Cota 220 (Soci), Artana (Ajuntament/Soci), Sax (Soci), Benicarló - Sant Gregori (Soci), Riba-roja de Túria - la Reva (Soci), Castielfabib - Arroyo Cerezo (Pròpia d'AVAMET), Tavernes de la Valldigna - Ull del Bou/Cambro (Soci), Chella - Casa Conde (Soci), El Genovés (Inforatge) - - -